Aktuální počasí v Česku a ve světě - METAR

Seznam meteostanic umístěných nejčasteji na letišti v ČR a ve světě

Vyhledat místa podle abecedy:
A B C D E F G H I J K L M N O P Q R S T U V W X Y Z

Filtrovat:

ID stanice:
a/nebo
Název místa (fulltext):
 
Místo (ID)Naposledy načteno 
Temelín (Temelin) 01.12.2020 09:00 UTC Zobrazit data
Místo: Temelín
Teplota: -1 °C (pocitová: -7.2 °C)
Vítr: 2 m/s z(e) 100°
Počasí: skorojasno
Dohlednost: 15 km
Zákl. oblačnosti: 2/8 2700 m
Vlhkost: 86%
Tahiti (NTAA) 01.12.2020 09:00 UTC Zobrazit METAR
NTAA 010900Z AUTO 06005KT 030V090 9999 FEW037 BKN096 26/23 Q1016 NOSIG
Taipei (RCTP) 01.12.2020 09:00 UTC Zobrazit METAR
RCTP 010900Z 06016KT 7000 -RA FEW010 SCT018 BKN024 19/16 Q1021 WS R05L NOSIG RMK A3016
Taipei (RCSS) 01.12.2020 09:00 UTC Zobrazit METAR
RCSS 010900Z 10011KT 6000 -RA FEW008 BKN028 BKN050 19/18 Q1021 NOSIG RMK A3017
Tallinn (EETN) 01.12.2020 08:50 UTC Zobrazit METAR
EETN 010850Z 19010KT 9999 BKN007 BKN029 02/01 Q1019 R08/290195 NOSIG
Tampere (EFTP) 01.12.2020 08:50 UTC Zobrazit METAR
EFTP 010850Z 23011KT 9999 -RA BKN006 02/02 Q1013
Tarawa I (NGTA) 01.12.2020 09:00 UTC Zobrazit METAR
NGTA 010900Z 08009KT 9999 FEW020 SCT300 28/23 Q1009
Targu Mures (LRTM) 01.12.2020 09:00 UTC Zobrazit METAR
LRTM 010900Z 03003KT 360V060 1700 BR SCT001 BKN002 OVC003 M03/M04 Q1025
Tartu (EETU) 01.12.2020 08:50 UTC Zobrazit METAR
EETU 010850Z 20010KT 9999 FEW008 SCT012 01/M00 Q1022
Tashkent (UTTT) 01.12.2020 01:00 UTC Zobrazit METAR
UTTT 010100Z 06006KT 4000 BR NSC 01/M02 Q1025 R08R/CLRD70 NOSIG
Tbilisi (UGGG) Zatím nenačteno  
Tegucigalpa (MHTG) 01.12.2020 09:00 UTC Zobrazit METAR
MHTG 010900Z 36010KT 9999 FEW010 SCT026 19/17 Q1019 A3009 NOSIG
Tehran (OIII) 01.12.2020 09:00 UTC Zobrazit METAR
OIII 010900Z 15004KT 3000 HZ FEW040 SCT100 12/03 Q1021 A3017 NOSIG
Tel Aviv (LLBG) 01.12.2020 08:50 UTC Zobrazit METAR
LLBG 010850Z VRB03KT CAVOK 21/09 Q1013 NOSIG
Tenerife (GCTS) 01.12.2020 09:00 UTC Zobrazit METAR
GCTS 010900Z 29006KT 9999 FEW030 SCT050 19/16 Q1014 NOSIG
Thessaloniki (LGTS) 01.12.2020 08:50 UTC Zobrazit METAR
LGTS 010850Z 11002KT 9999 FEW006 BKN025 07/03 Q1022 NOSIG
Thule (BGTL) 01.12.2020 08:56 UTC Zobrazit METAR
BGTL 010856Z AUTO 11006KT 9999 CLR M26/M29 A2983 RMK AO2 SLP095 T12641288 55000 TSNO $
Timisoara (LRTR) 01.12.2020 09:00 UTC Zobrazit METAR
LRTR 010900Z 10009KT 8000 NSC M01/M01 Q1024
Tirana (LATI) 01.12.2020 08:50 UTC Zobrazit METAR
LATI 010850Z VRB02KT CAVOK 09/02 Q1017 NOSIG
Tokyo (RJTT) 01.12.2020 09:00 UTC Zobrazit METAR
RJTT 010900Z 11011KT 9999 FEW030 13/07 Q1026 NOSIG
Torp (ENTO) 01.12.2020 08:50 UTC Zobrazit METAR
ENTO 010850Z 36007KT 9999 FEW012 00/00 Q1018 NOSIG
Toulouse (LFBO) 01.12.2020 09:00 UTC Zobrazit METAR
LFBO 010900Z AUTO 26009KT 7000 FEW007 OVC072 08/06 Q1024 NOSIG
Tripoli (HLLT) 13.07.2014 03:50 UTC Zobrazit METAR
HLLT 130350Z 11009KT CAVOK 24/15 Q1015
Trondheim (ENVA) 01.12.2020 08:50 UTC Zobrazit METAR
ENVA 010850Z 27014KT 9999 -RA FEW013 SCT021 BKN028 04/01 Q1019 NOSIG RMK WIND 670FT 28011KT
Tunis (DTTA) 01.12.2020 09:00 UTC Zobrazit METAR
DTTA 010900Z 22006KT 190V250 9999 FEW023 16/11 Q1020
Turku (EFTU) 01.12.2020 08:50 UTC Zobrazit METAR
EFTU 010850Z AUTO 25010KT 9999 -SHRA BKN014 04/03 Q1016
Reklama


Další české internetové stránky (nejen) o počasí najdete v katalogu TOPlist - weby o počasí nebo vyhledejte na internetu, co jste tu na 🌞 Slunečnu ⛅ zatím nenašli:
⭐ Přidat Slunečno.cz do oblíbených | 🏠 Nastavit Slunečno.cz jako HOMEPAGE

⬆️ Posunout stránku nahoru ⬆️
Reklama